createdAt,value
2019-06-27T00:03:03.435Z,43
2019-06-27T00:06:09.595Z,43.1
2019-06-27T00:09:15.861Z,43.1
2019-06-27T00:12:22.127Z,43.2
2019-06-27T00:15:28.599Z,43.1
2019-06-27T00:18:34.867Z,43.1
2019-06-27T00:21:41.004Z,43.2
2019-06-27T00:24:47.294Z,43.2
2019-06-27T00:27:53.458Z,43.2
2019-06-27T00:30:59.729Z,43.2
2019-06-27T00:34:06.104Z,43.4
2019-06-27T00:37:12.238Z,43.3
2019-06-27T00:40:18.422Z,43.3
2019-06-27T00:43:24.553Z,43.1
2019-06-27T00:46:30.767Z,43.3
2019-06-27T00:49:37.024Z,43.1
2019-06-27T00:52:43.200Z,43.3
2019-06-27T00:55:49.449Z,43.2
2019-06-27T00:58:55.714Z,43.3
2019-06-27T01:02:01.847Z,43.3
2019-06-27T01:05:08.150Z,43.4
2019-06-27T01:08:14.327Z,43.2
2019-06-27T01:11:20.682Z,43.3
2019-06-27T01:14:26.946Z,43.3
2019-06-27T01:17:33.316Z,43.2
2019-06-27T01:20:39.582Z,43.3
2019-06-27T01:23:45.848Z,43.3
2019-06-27T01:26:52.113Z,43.2
2019-06-27T01:29:58.379Z,43.4
2019-06-27T01:33:04.647Z,43.3
2019-06-27T01:36:10.918Z,43.3
2019-06-27T01:39:17.182Z,43.4
2019-06-27T01:42:23.352Z,43.4
2019-06-27T01:45:29.616Z,43.3
2019-06-27T01:48:38.646Z,43.3
2019-06-27T01:51:44.914Z,43.4
2019-06-27T01:54:51.185Z,43.4
2019-06-27T01:57:57.445Z,43.4
2019-06-27T02:01:06.348Z,43.4
2019-06-27T02:04:12.639Z,43.3
2019-06-27T02:07:18.778Z,43.4
2019-06-27T02:10:24.967Z,43.4
2019-06-27T02:13:31.237Z,43.4
2019-06-27T02:16:37.505Z,43.5
2019-06-27T02:19:43.768Z,43.4
2019-06-27T02:22:49.912Z,43.4
2019-06-27T02:25:56.204Z,43.4
2019-06-27T02:29:02.371Z,43.4
2019-06-27T02:32:08.590Z,43.4
2019-06-27T02:35:14.714Z,43.5
2019-06-27T02:38:21.085Z,43.4
2019-06-27T02:41:27.231Z,43.5
2019-06-27T02:44:33.498Z,43.4
2019-06-27T02:47:39.766Z,43.5
2019-06-27T02:50:45.923Z,43.6
2019-06-27T02:53:52.189Z,43.6
2019-06-27T02:56:58.337Z,43.6
2019-06-27T03:00:04.782Z,43.4
2019-06-27T03:03:10.991Z,43.5
2019-06-27T03:06:17.134Z,43.4
2019-06-27T03:09:23.317Z,43.4
2019-06-27T03:12:29.586Z,43.4
2019-06-27T03:15:35.753Z,43.2
2019-06-27T03:18:42.118Z,43.2
2019-06-27T03:21:48.382Z,43.2
2019-06-27T03:24:54.649Z,43.1
2019-06-27T03:28:00.915Z,43.1
2019-06-27T03:31:07.101Z,42.9
2019-06-27T03:34:13.573Z,42.9
2019-06-27T03:37:19.822Z,42.8
2019-06-27T03:40:26.090Z,42.7
2019-06-27T03:43:32.462Z,42.6
2019-06-27T03:46:38.820Z,42.4
2019-06-27T03:49:44.978Z,42.3
2019-06-27T03:52:51.255Z,42.1
2019-06-27T03:55:57.628Z,41.9
2019-06-27T03:59:13.783Z,41.6
2019-06-27T04:02:20.100Z,41.5
2019-06-27T04:05:26.370Z,41.6
2019-06-27T04:08:32.622Z,41.1
2019-06-27T04:11:38.790Z,40.6
2019-06-27T04:14:45.059Z,40.2
2019-06-27T04:17:51.260Z,40.1
2019-06-27T04:20:57.601Z,40.2
2019-06-27T04:24:03.976Z,40.3
2019-06-27T04:27:10.403Z,39.9
2019-06-27T04:30:16.696Z,39.1
2019-06-27T04:33:22.834Z,38.3
2019-06-27T04:36:29.014Z,37.7
2019-06-27T04:39:35.194Z,37.2
2019-06-27T04:42:41.607Z,36.6
2019-06-27T04:45:47.924Z,36.1
2019-06-27T04:48:54.357Z,36
2019-06-27T04:52:00.771Z,35.8
2019-06-27T04:55:07.037Z,36
2019-06-27T04:58:13.377Z,36.6
2019-06-27T05:01:19.668Z,37.3
2019-06-27T05:04:25.950Z,37.8
2019-06-27T05:07:32.208Z,38.2
2019-06-27T05:10:38.480Z,38.6
2019-06-27T05:13:44.711Z,38.9
2019-06-27T05:16:50.904Z,39.1
2019-06-27T05:19:57.039Z,39.2
2019-06-27T05:23:07.425Z,39.5
2019-06-27T05:26:13.620Z,39.7
2019-06-27T05:29:19.858Z,39.8
2019-06-27T05:32:26.127Z,39.7
2019-06-27T05:35:32.268Z,39.9
2019-06-27T05:38:38.478Z,39.9
2019-06-27T05:41:44.722Z,39.7
2019-06-27T05:44:54.426Z,39.9
2019-06-27T05:48:00.636Z,40
2019-06-27T05:51:06.779Z,39.9
2019-06-27T05:54:13.074Z,40
2019-06-27T05:57:19.203Z,39.8
2019-06-27T06:00:29.872Z,40.2
2019-06-27T06:03:36.062Z,40
2019-06-27T06:06:42.195Z,40
2019-06-27T06:09:48.360Z,40.4
2019-06-27T06:12:54.484Z,40.2
2019-06-27T06:16:01.954Z,40.5
2019-06-27T06:19:08.323Z,40.5
2019-06-27T06:22:14.689Z,40.2
2019-06-27T06:25:21.061Z,40.2
2019-06-27T06:28:27.309Z,40.4
2019-06-27T06:31:33.585Z,40.5
2019-06-27T06:34:39.746Z,40.2
2019-06-27T06:37:46.022Z,40.3
2019-06-27T06:40:52.356Z,40.3
2019-06-27T06:43:58.547Z,40.1
2019-06-27T06:47:04.682Z,40.2
2019-06-27T06:50:11.095Z,40.1
2019-06-27T06:53:17.223Z,40.1
2019-06-27T06:56:23.620Z,40.2
2019-06-27T06:59:29.900Z,40.3
2019-06-27T07:02:36.022Z,40.6
2019-06-27T07:05:42.215Z,40.6
2019-06-27T07:08:48.474Z,40.4
2019-06-27T07:11:54.605Z,40.7
2019-06-27T07:15:00.839Z,40.7
2019-06-27T07:18:07.333Z,40.7
2019-06-27T07:21:13.543Z,40.8
2019-06-27T07:24:19.710Z,40.4
2019-06-27T07:27:25.893Z,40.3
2019-06-27T07:30:32.141Z,40.3
2019-06-27T07:33:38.419Z,40.3
2019-06-27T07:36:44.643Z,39.9
2019-06-27T07:39:50.867Z,40.1
2019-06-27T07:42:57.409Z,40.1
2019-06-27T07:46:03.555Z,39.8
2019-06-27T07:49:09.739Z,39.8
2019-06-27T07:52:15.871Z,39.7
2019-06-27T07:55:22.409Z,39.5
2019-06-27T07:58:28.851Z,39.6
2019-06-27T08:01:36.757Z,39.6
2019-06-27T08:04:43.021Z,39.5
2019-06-27T08:07:49.292Z,39.7
2019-06-27T08:10:55.666Z,39.4
2019-06-27T08:14:01.921Z,39.4
2019-06-27T08:17:08.100Z,39.4
2019-06-27T08:20:14.266Z,39.3
2019-06-27T08:23:20.520Z,39.5
2019-06-27T08:26:26.643Z,39.4
2019-06-27T08:29:32.845Z,39.3
2019-06-27T08:32:38.989Z,39
2019-06-27T08:35:45.322Z,39.1
2019-06-27T08:38:51.752Z,39
2019-06-27T08:41:58.228Z,38.9
2019-06-27T08:45:04.403Z,38.8
2019-06-27T08:48:10.675Z,39
2019-06-27T08:51:17.356Z,38.8
2019-06-27T08:54:23.805Z,38.6
2019-06-27T08:57:29.938Z,38.5
2019-06-27T09:00:36.239Z,38.5
2019-06-27T09:03:42.708Z,38.6
2019-06-27T09:06:48.979Z,38.7
2019-06-27T09:09:55.149Z,38.5
2019-06-27T09:13:01.514Z,38.5
2019-06-27T09:16:08.087Z,38.5
2019-06-27T09:19:14.353Z,38.4
2019-06-27T09:22:20.517Z,38.4
2019-06-27T09:25:26.707Z,38.5
2019-06-27T09:28:32.949Z,38.3
2019-06-27T09:31:39.116Z,38.5
2019-06-27T09:34:45.590Z,38.3
2019-06-27T09:37:51.737Z,38.4
2019-06-27T09:40:57.912Z,38.4
2019-06-27T09:44:04.182Z,38.2
2019-06-27T09:47:10.452Z,38.3
2019-06-27T09:50:16.689Z,38.3
2019-06-27T09:53:27.182Z,38.2
2019-06-27T09:56:33.448Z,38.1
2019-06-27T09:59:39.583Z,38
2019-06-27T10:02:45.873Z,38.1
2019-06-27T10:05:52.002Z,38.1
2019-06-27T10:08:58.199Z,38
2019-06-27T10:12:04.464Z,38
2019-06-27T10:15:10.631Z,37.9
2019-06-27T10:18:17.000Z,37.8
2019-06-27T10:21:23.232Z,37.8
2019-06-27T10:24:29.363Z,37.9
2019-06-27T10:27:35.596Z,38.3
2019-06-27T10:30:41.750Z,37.9
2019-06-27T10:33:47.882Z,37.8
2019-06-27T10:36:54.099Z,37.6
2019-06-27T10:40:00.365Z,37.5
2019-06-27T10:43:06.519Z,37.4
2019-06-27T10:46:12.796Z,37.2
2019-06-27T10:49:18.994Z,37.2
2019-06-27T10:52:25.229Z,37.3
2019-06-27T10:55:31.713Z,37.2
2019-06-27T10:58:37.863Z,37.4
2019-06-27T11:01:43.992Z,37.2
2019-06-27T11:04:50.293Z,37.1
2019-06-27T11:07:56.458Z,37.1
2019-06-27T11:11:02.828Z,37
2019-06-27T11:14:08.963Z,37
2019-06-27T11:17:15.209Z,37.1
2019-06-27T11:20:21.335Z,37.1
2019-06-27T11:23:27.898Z,37.1
2019-06-27T11:26:34.076Z,37.1
2019-06-27T11:29:40.318Z,37
2019-06-27T11:32:46.588Z,37.2
2019-06-27T11:35:52.854Z,37.1
2019-06-27T11:38:59.122Z,37.1
2019-06-27T11:42:05.486Z,37
2019-06-27T11:45:11.648Z,37.1
2019-06-27T11:48:17.919Z,37
2019-06-27T11:51:24.129Z,37.2
2019-06-27T11:54:30.453Z,37.1
2019-06-27T11:57:36.723Z,37.2
2019-06-27T12:00:43.537Z,37.2
2019-06-27T12:03:51.077Z,37.1
2019-06-27T12:06:57.376Z,37.3
2019-06-27T12:10:03.630Z,37.2
2019-06-27T12:13:09.901Z,37.3
2019-06-27T12:16:16.034Z,37.6
2019-06-27T12:19:22.227Z,37.8
2019-06-27T12:22:28.389Z,37.9
2019-06-27T12:25:34.731Z,37.7
2019-06-27T12:28:41.028Z,37.7
2019-06-27T12:31:47.171Z,37.9
2019-06-27T12:34:57.249Z,37.9
2019-06-27T12:38:03.521Z,37.9
2019-06-27T12:41:09.683Z,37.8
2019-06-27T12:44:15.945Z,38
2019-06-27T12:47:22.118Z,38
2019-06-27T12:50:28.374Z,38
2019-06-27T12:53:34.653Z,38.2
2019-06-27T12:56:41.015Z,38.2
2019-06-27T12:59:47.343Z,38.1
2019-06-27T13:02:53.542Z,38.1
2019-06-27T13:05:59.829Z,38.4
2019-06-27T13:09:05.975Z,38.3
2019-06-27T13:12:12.142Z,38.2
2019-06-27T13:15:18.288Z,38.4
2019-06-27T13:18:24.575Z,38.3
2019-06-27T13:21:30.839Z,38.2
2019-06-27T13:24:37.109Z,38.3
2019-06-27T13:27:43.581Z,38.5
2019-06-27T13:30:50.046Z,38.6
2019-06-27T13:33:56.421Z,38.4
2019-06-27T13:37:02.690Z,39.2
2019-06-27T13:40:09.054Z,38.5
2019-06-27T13:43:15.219Z,38.9
2019-06-27T13:46:21.384Z,39.1
2019-06-27T13:49:27.652Z,38.7
2019-06-27T13:52:33.813Z,38.8
2019-06-27T13:55:40.085Z,38.7
2019-06-27T13:58:46.221Z,38.5
2019-06-27T14:01:52.438Z,38.8
2019-06-27T14:04:58.682Z,38.7
2019-06-27T14:08:04.821Z,38.6
2019-06-27T14:11:11.007Z,38.4
2019-06-27T14:14:17.282Z,38.6
2019-06-27T14:17:23.548Z,38.4
2019-06-27T14:20:29.947Z,38.3
2019-06-27T14:23:36.232Z,38.4
2019-06-27T14:26:42.446Z,38.4
2019-06-27T14:29:48.712Z,38.4
2019-06-27T14:32:54.846Z,38.4
2019-06-27T14:36:01.136Z,38.3
2019-06-27T14:39:07.424Z,38.3
2019-06-27T14:42:13.581Z,38.2
2019-06-27T14:45:19.956Z,38.1
2019-06-27T14:48:26.204Z,38.1
2019-06-27T14:51:32.379Z,38.2
2019-06-27T14:54:38.635Z,38.1
2019-06-27T14:57:44.789Z,38
2019-06-27T15:00:50.941Z,37.9
2019-06-27T15:03:57.127Z,38
2019-06-27T15:07:03.601Z,37.9
2019-06-27T15:10:09.976Z,37.9
2019-06-27T15:13:16.596Z,37.9
2019-06-27T15:16:22.914Z,37.9
2019-06-27T15:19:29.059Z,37.9
2019-06-27T15:22:35.347Z,37.8
2019-06-27T15:25:41.618Z,37.8
2019-06-27T15:28:47.878Z,37.9
2019-06-27T15:31:54.150Z,37.9
2019-06-27T15:35:00.514Z,37.9
2019-06-27T15:38:06.675Z,37.9
2019-06-27T15:41:12.844Z,37.9
2019-06-27T15:44:21.374Z,38
2019-06-27T15:47:27.634Z,38
2019-06-27T15:50:33.794Z,38.1
2019-06-27T15:53:40.063Z,38.1
2019-06-27T15:56:46.200Z,38.2
2019-06-27T15:59:52.493Z,38.5
2019-06-27T16:02:58.765Z,38.5
2019-06-27T16:06:14.607Z,38.5
2019-06-27T16:09:20.920Z,38.4
2019-06-27T16:12:27.183Z,38.6
2019-06-27T16:15:33.424Z,38.8
2019-06-27T16:18:41.660Z,38.8
2019-06-27T16:21:47.927Z,38.9
2019-06-27T16:24:56.751Z,39
2019-06-27T16:28:02.924Z,38.9
2019-06-27T16:31:09.189Z,39
2019-06-27T16:34:15.335Z,38.9
2019-06-27T16:37:21.496Z,39.1
2019-06-27T16:40:27.778Z,39.1
2019-06-27T16:43:34.259Z,39.1
2019-06-27T16:46:40.528Z,39.3
2019-06-27T16:49:46.679Z,39.4
2019-06-27T16:52:52.846Z,39.3
2019-06-27T16:55:59.011Z,39.5
2019-06-27T16:59:05.214Z,39.4
2019-06-27T17:02:11.444Z,39.5
2019-06-27T17:05:17.712Z,39.6
2019-06-27T17:08:23.865Z,39.7
2019-06-27T17:11:30.041Z,39.8
2019-06-27T17:14:36.182Z,39.7
2019-06-27T17:17:42.366Z,40.1
2019-06-27T17:20:48.736Z,40
2019-06-27T17:23:54.893Z,40
2019-06-27T17:27:01.063Z,40.1
2019-06-27T17:30:07.433Z,40
2019-06-27T17:33:13.699Z,40.1
2019-06-27T17:36:19.825Z,40.4
2019-06-27T17:39:26.030Z,40.3
2019-06-27T17:42:32.295Z,40.3
2019-06-27T17:45:38.561Z,40.2
2019-06-27T17:48:44.687Z,40.4
2019-06-27T17:51:50.891Z,40.4
2019-06-27T17:54:57.117Z,40.3
2019-06-27T17:58:03.348Z,40.4
2019-06-27T18:01:09.590Z,40.3
2019-06-27T18:04:15.723Z,40.4
2019-06-27T18:07:21.916Z,40.3
2019-06-27T18:10:28.185Z,40.4
2019-06-27T18:13:34.452Z,40.3
2019-06-27T18:16:40.818Z,40.4
2019-06-27T18:19:46.945Z,40.2
2019-06-27T18:22:56.216Z,40.1
2019-06-27T18:26:02.386Z,40.4
2019-06-27T18:29:08.510Z,40.4
2019-06-27T18:32:14.714Z,40.4
2019-06-27T18:35:20.879Z,40.2
2019-06-27T18:38:27.050Z,40.3
2019-06-27T18:41:33.321Z,40.4
2019-06-27T18:44:39.471Z,40.6
2019-06-27T18:47:45.943Z,40.3
2019-06-27T18:50:52.109Z,40.4
2019-06-27T18:54:01.703Z,40.3
2019-06-27T18:57:07.919Z,40.1
2019-06-27T19:00:14.085Z,40.2
2019-06-27T19:03:20.244Z,40.2
2019-06-27T19:06:28.977Z,40.1
2019-06-27T19:09:35.143Z,40.1
2019-06-27T19:12:41.457Z,40.1
2019-06-27T19:15:47.672Z,40.1
2019-06-27T19:18:53.807Z,40.1
2019-06-27T19:22:00.096Z,40.1
2019-06-27T19:25:06.301Z,40.1
2019-06-27T19:28:12.433Z,40.1
2019-06-27T19:31:18.594Z,40.1
2019-06-27T19:34:24.756Z,40.1
2019-06-27T19:37:31.035Z,40.1
2019-06-27T19:40:37.180Z,40.1
2019-06-27T19:43:43.459Z,40.1
2019-06-27T19:46:49.596Z,40
2019-06-27T19:49:55.885Z,40
2019-06-27T19:53:02.154Z,40
2019-06-27T19:56:08.313Z,40
2019-06-27T19:59:14.580Z,40
2019-06-27T20:02:20.958Z,40
2019-06-27T20:05:27.215Z,40
2019-06-27T20:08:33.484Z,40
2019-06-27T20:11:39.623Z,40
2019-06-27T20:14:45.762Z,39.9
2019-06-27T20:17:52.082Z,40
2019-06-27T20:20:58.206Z,40
2019-06-27T20:24:04.410Z,40
2019-06-27T20:27:10.573Z,40
2019-06-27T20:30:16.743Z,40
2019-06-27T20:33:22.873Z,40
2019-06-27T20:36:29.066Z,40
2019-06-27T20:39:38.507Z,40
2019-06-27T20:42:47.128Z,40
2019-06-27T20:45:53.301Z,39.9
2019-06-27T20:48:59.662Z,39.9
2019-06-27T20:52:06.288Z,40
2019-06-27T20:55:14.371Z,39.9
2019-06-27T20:58:21.733Z,39.9
2019-06-27T21:01:32.146Z,39.9
2019-06-27T21:04:38.277Z,40
2019-06-27T21:07:44.432Z,39.9
2019-06-27T21:10:50.691Z,40
2019-06-27T21:13:56.965Z,39.9
2019-06-27T21:17:03.238Z,39.9
2019-06-27T21:20:09.566Z,39.9
2019-06-27T21:23:15.877Z,40
2019-06-27T21:26:22.134Z,40
2019-06-27T21:29:28.285Z,39.9
2019-06-27T21:32:34.577Z,40
2019-06-27T21:35:40.826Z,39.9
2019-06-27T21:38:47.001Z,39.9
2019-06-27T21:41:53.135Z,39.9
2019-06-27T21:44:59.437Z,39.9
2019-06-27T21:48:05.804Z,39.9
2019-06-27T21:51:12.024Z,39.9
2019-06-27T21:54:18.340Z,39.9
2019-06-27T21:57:24.483Z,40
2019-06-27T22:00:33.343Z,39.9
2019-06-27T22:03:39.709Z,39.9
2019-06-27T22:06:45.973Z,40
2019-06-27T22:09:52.222Z,39.9
2019-06-27T22:12:58.487Z,40
2019-06-27T22:16:04.629Z,40.1
2019-06-27T22:19:10.919Z,40
2019-06-27T22:22:17.079Z,40
2019-06-27T22:25:41.080Z,40
2019-06-27T22:28:47.453Z,40
2019-06-27T22:31:53.647Z,40
2019-06-27T22:34:59.866Z,40
2019-06-27T22:38:06.004Z,40.1
2019-06-27T22:41:12.189Z,40
2019-06-27T22:44:20.995Z,40
2019-06-27T22:47:27.180Z,39.9
2019-06-27T22:50:33.344Z,40
2019-06-27T22:53:39.609Z,40
2019-06-27T22:56:45.877Z,40
2019-06-27T22:59:52.042Z,40
2019-06-27T23:02:58.174Z,39.9
2019-06-27T23:06:04.382Z,40.1
2019-06-27T23:09:10.582Z,40
2019-06-27T23:12:16.800Z,40.1
2019-06-27T23:15:23.059Z,40.1
2019-06-27T23:18:29.249Z,40.1
2019-06-27T23:21:35.721Z,40.1
2019-06-27T23:24:41.971Z,40.1
2019-06-27T23:27:48.118Z,40.1
2019-06-27T23:30:54.409Z,40
2019-06-27T23:34:00.671Z,40.1
2019-06-27T23:37:07.152Z,40.1
2019-06-27T23:40:15.561Z,40.1
2019-06-27T23:43:21.732Z,40.1
2019-06-27T23:46:28.007Z,40.2
2019-06-27T23:49:34.257Z,40.2
2019-06-27T23:52:40.384Z,40.3
2019-06-27T23:55:46.602Z,40.2
2019-06-27T23:58:55.627Z,40.2
